Time;durP1;ratioP1;P1;durP2;ratioP2;P2;SDS_P1;SDS_P2;PMS_P1;PMS_P2;Temp;Humidity;BMP_temperature;BMP_pressure;BME280_temperature;BME280_humidity;BME280_pressure;Samples;Min_cycle;Max_cycle;Signal;HPM_P1;HPM_P2
2021/12/10 00:02:03;;;;;;;26.90;15.20;;;;;;;-1.20;83.35;99613.29;84791;1326;24274;-74
2021/12/10 00:04:11;;;;;;;33.10;18.30;;;;;;;-1.17;83.31;99605.08;84834;1327;22573;-75
2021/12/10 00:06:20;;;;;;;29.90;15.70;;;;;;;-1.15;83.39;99603.18;84807;1327;22610;-74
2021/12/10 00:08:29;;;;;;;28.10;15.90;;;;;;;-1.16;83.12;99592.07;84102;1328;1016134;-75
2021/12/10 00:10:41;;;;;;;35.30;16.80;;;;;;;-1.17;83.30;99584.71;84794;1326;22591;-74
2021/12/10 00:12:51;;;;;;;30.70;16.90;;;;;;;-1.18;83.27;99579.73;84778;1325;23815;-74
2021/12/10 00:14:58;;;;;;;31.50;16.50;;;;;;;-1.17;83.16;99578.55;84809;1326;22548;-74
2021/12/10 00:17:06;;;;;;;32.30;15.60;;;;;;;-1.16;83.42;99579.58;84782;1326;22613;-74
2021/12/10 00:19:24;;;;;;;33.00;16.30;;;;;;;-1.14;83.38;99575.10;84769;1325;23772;-74
2021/12/10 00:21:31;;;;;;;30.80;13.60;;;;;;;-1.12;83.29;99580.24;84790;1327;22595;-74
2021/12/10 00:23:39;;;;;;;37.20;18.60;;;;;;;-1.11;83.17;99575.61;84816;1328;22599;-74
2021/12/10 00:25:50;;;;;;;39.50;18.10;;;;;;;-1.13;83.45;99562.27;84735;1327;22729;-69
2021/12/10 00:27:59;;;;;;;35.10;17.00;;;;;;;-1.11;83.47;99556.95;84797;1327;22699;-69
2021/12/10 00:30:12;;;;;;;33.00;17.10;;;;;;;-1.14;83.21;99553.03;84808;1326;26624;-69
2021/12/10 00:32:30;;;;;;;33.20;16.70;;;;;;;-1.14;83.15;99554.56;84821;1322;22716;-69
2021/12/10 00:34:38;;;;;;;29.40;15.40;;;;;;;-1.14;83.22;99550.80;84787;1326;22602;-68
2021/12/10 00:36:46;;;;;;;32.70;14.50;;;;;;;-1.14;83.31;99541.04;84798;1326;22616;-75
2021/12/10 00:38:56;;;;;;;37.30;17.30;;;;;;;-1.12;83.40;99530.78;84782;1326;22717;-75
2021/12/10 00:41:06;;;;;;;44.20;19.30;;;;;;;-1.10;83.54;99522.71;84788;1326;23989;-70
2021/12/10 00:43:14;;;;;;;39.70;18.70;;;;;;;-1.08;83.55;99517.41;84801;1329;23805;-69
2021/12/10 00:45:21;;;;;;;33.80;15.40;;;;;;;-1.08;83.44;99509.54;84824;1322;22708;-69
2021/12/10 00:47:29;;;;;;;36.50;17.50;;;;;;;-1.10;83.69;99517.41;84795;1326;23076;-69
2021/12/10 00:49:36;;;;;;;32.20;16.20;;;;;;;-1.15;83.86;99525.66;84803;1328;22706;-72
2021/12/10 00:51:46;;;;;;;27.10;14.10;;;;;;;-1.15;83.69;99527.52;84827;1327;25614;-68
2021/12/10 00:53:53;;;;;;;31.60;15.80;;;;;;;-1.12;83.80;99525.98;84766;1322;22794;-68
2021/12/10 00:56:01;;;;;;;27.80;15.20;;;;;;;-1.10;83.76;99524.60;83292;1330;1002938;-69
2021/12/10 00:58:08;;;;;;;36.40;17.10;;;;;;;-1.09;83.76;99523.56;84773;1327;22607;-69
2021/12/10 01:00:17;;;;;;;38.20;18.40;;;;;;;-1.08;83.77;99521.17;84791;1326;22915;-72
2021/12/10 01:02:25;;;;;;;37.80;17.50;;;;;;;-1.06;83.63;99508.33;84825;1329;23902;-75
2021/12/10 01:04:33;;;;;;;32.30;15.80;;;;;;;-1.05;83.63;99507.29;84796;1326;24304;-74
2021/12/10 01:06:46;;;;;;;38.50;17.40;;;;;;;-1.06;83.96;99509.19;84819;1327;22580;-76
2021/12/10 01:08:58;;;;;;;35.30;16.60;;;;;;;-1.08;84.01;99500.64;84806;1326;22707;-74
2021/12/10 01:11:08;;;;;;;29.80;15.60;;;;;;;-1.10;84.27;99497.56;84825;1327;22584;-69
2021/12/10 01:13:18;;;;;;;33.60;15.00;;;;;;;-1.11;84.55;99499.28;84808;1327;25323;-69
2021/12/10 01:15:48;;;;;;;36.00;17.10;;;;;;;-1.10;84.20;99502.70;84778;1326;23924;-69
2021/12/10 01:25:34;;;;;;;32.30;16.30;;;;;;;-1.05;84.42;99485.38;84814;1327;22580;-73
2021/12/10 01:27:40;;;;;;;;;;;;;;;-1.01;84.46;99483.66;84724;1327;22576;-75
2021/12/10 01:29:48;;;;;;;36.40;16.20;;;;;;;-1.01;84.66;99479.02;84830;1321;22598;-74
2021/12/10 01:31:55;;;;;;;37.40;18.40;;;;;;;-1.00;84.83;99481.41;84825;1323;22632;-69
2021/12/10 01:34:03;;;;;;;33.00;16.20;;;;;;;-1.00;84.78;99482.27;84795;1326;22650;-69
2021/12/10 01:36:10;;;;;;;34.20;16.70;;;;;;;-1.00;84.66;99478.17;84821;1325;22604;-69
2021/12/10 01:38:17;;;;;;;32.40;16.80;;;;;;;-1.03;84.79;99484.69;84792;1322;25614;-69
2021/12/10 01:40:25;;;;;;;30.00;16.00;;;;;;;-1.02;84.58;99485.04;84796;1326;24388;-69
2021/12/10 01:42:40;;;;;;;33.60;16.80;;;;;;;-1.00;84.53;99473.72;84790;1327;22631;-75
2021/12/10 01:44:51;;;;;;;29.10;15.30;;;;;;;-0.96;84.62;99475.06;84764;1324;25608;-75
2021/12/10 01:46:59;;;;;;;32.30;16.10;;;;;;;-0.93;84.42;99475.73;84815;1326;22622;-75
2021/12/10 01:49:09;;;;;;;34.10;16.80;;;;;;;-0.90;84.61;99462.36;84068;1328;1002925;-74
2021/12/10 01:51:18;;;;;;;29.20;17.20;;;;;;;-0.86;84.64;99464.20;84802;1327;25509;-68
2021/12/10 01:53:27;;;;;;;36.90;15.80;;;;;;;-0.86;84.62;99457.88;84074;1318;1003407;-69
2021/12/10 01:55:36;;;;;;;34.80;16.60;;;;;;;-0.88;84.58;99451.73;84806;1328;22818;-69
2021/12/10 01:57:43;;;;;;;32.90;14.50;;;;;;;-0.87;84.25;99456.70;84827;1327;24186;-75
2021/12/10 01:59:50;;;;;;;34.10;16.70;;;;;;;-0.88;84.71;99459.09;84792;1329;22723;-75
2021/12/10 02:01:59;;;;;;;31.00;15.40;;;;;;;-0.87;84.47;99456.19;84818;1327;22607;-74
2021/12/10 02:04:07;;;;;;;31.00;16.10;;;;;;;-0.87;84.64;99455.33;84826;1327;23924;-74
2021/12/10 02:06:18;;;;;;;31.30;15.60;;;;;;;-0.87;84.46;99453.45;84820;1328;22790;-74
2021/12/10 02:08:26;;;;;;;;;;;;;;;-0.84;84.47;99447.59;84796;1328;22556;-74
2021/12/10 02:10:34;;;;;;;35.40;16.50;;;;;;;-0.85;84.65;99447.43;84826;1327;24244;-74
2021/12/10 02:12:41;;;;;;;31.20;14.60;;;;;;;-0.86;84.79;99449.66;84714;1327;22593;-69
2021/12/10 02:14:57;;;;;;;34.40;16.90;;;;;;;-0.87;84.50;99449.67;84810;1327;22796;-70
2021/12/10 02:17:05;;;;;;;29.60;14.60;;;;;;;-0.87;84.74;99442.65;84834;1318;22732;-74
2021/12/10 02:19:12;;;;;;;29.20;15.10;;;;;;;-0.86;84.67;99431.00;84830;1327;22591;-74
2021/12/10 02:21:21;;;;;;;30.60;15.50;;;;;;;-0.84;84.63;99422.77;84810;1326;22589;-75
2021/12/10 02:23:33;;;;;;;36.10;15.80;;;;;;;-0.84;84.65;99413.52;84799;1327;22842;-74
2021/12/10 02:25:43;;;;;;;35.00;16.10;;;;;;;-0.82;84.59;99423.11;84834;1327;22596;-73
2021/12/10 02:27:51;;;;;;;37.10;16.70;;;;;;;-0.82;84.66;99423.61;84809;1326;23943;-74
2021/12/10 02:29:58;;;;;;;32.10;15.80;;;;;;;-0.81;84.92;99419.66;84799;1327;24136;-74
2021/12/10 02:32:10;;;;;;;38.80;16.00;;;;;;;-0.81;84.66;99418.65;84831;1322;25514;-71
2021/12/10 02:34:20;;;;;;;28.10;15.30;;;;;;;-0.81;84.85;99406.81;84785;1328;22767;-69
2021/12/10 02:36:27;;;;;;;31.10;16.30;;;;;;;-0.79;85.02;99409.73;84798;1326;22882;-74
2021/12/10 02:38:35;;;;;;;37.50;17.90;;;;;;;-0.77;85.11;99409.89;84784;1326;24419;-75
2021/12/10 02:40:43;;;;;;;30.30;13.90;;;;;;;-0.76;85.10;99410.55;84788;1322;22894;-75
2021/12/10 02:42:51;;;;;;;33.70;15.30;;;;;;;-0.79;85.04;99408.69;84810;1327;23962;-73
2021/12/10 02:44:58;;;;;;;28.10;14.50;;;;;;;-0.80;85.01;99397.57;84799;1327;22579;-74
2021/12/10 02:47:06;;;;;;;29.00;15.40;;;;;;;-0.83;85.21;99396.40;84760;1326;22609;-73
2021/12/10 02:49:13;;;;;;;31.00;15.20;;;;;;;-0.86;85.03;99384.77;84790;1329;23888;-73
2021/12/10 02:51:20;;;;;;;30.00;13.90;;;;;;;-0.84;85.00;99371.58;84806;1326;24995;-73
2021/12/10 02:53:35;;;;;;;29.00;15.00;;;;;;;-0.82;85.04;99367.27;84795;1322;24291;-74
2021/12/10 02:55:45;;;;;;;30.10;14.90;;;;;;;-0.78;85.12;99373.77;84797;1326;22770;-74
2021/12/10 02:57:53;;;;;;;27.70;14.90;;;;;;;-0.73;84.90;99382.11;84781;1325;22614;-75
2021/12/10 03:00:00;;;;;;;29.80;16.80;;;;;;;-0.71;85.07;99378.50;84821;1326;22588;-74
2021/12/10 03:02:13;;;;;;;34.20;15.80;;;;;;;-0.68;85.07;99386.02;84784;1322;22713;-69
2021/12/10 03:04:20;;;;;;;30.50;15.40;;;;;;;-0.68;85.01;99399.38;84796;1326;22604;-69
2021/12/10 03:06:28;;;;;;;27.80;15.90;;;;;;;-0.69;84.85;99403.83;84776;1326;22603;-73
2021/12/10 03:08:35;;;;;;;25.20;13.80;;;;;;;-0.68;84.91;99404.67;84820;1326;22599;-74
2021/12/10 03:10:46;;;;;;;32.20;16.10;;;;;;;-0.66;84.74;99406.19;84816;1327;22669;-74
2021/12/10 03:12:56;;;;;;;27.50;14.10;;;;;;;-0.64;84.88;99401.90;84720;1330;22605;-74
2021/12/10 03:15:04;;;;;;;24.30;13.40;;;;;;;-0.59;84.90;99397.56;84792;1326;22689;-74
2021/12/10 03:17:17;;;;;;;31.10;16.10;;;;;;;-0.57;84.94;99393.44;84824;1327;23946;-70
2021/12/10 03:19:24;;;;;;;29.30;16.20;;;;;;;-0.58;84.98;99392.59;84834;1327;24197;-68
2021/12/10 03:21:30;;;;;;;26.50;14.70;;;;;;;-0.58;84.78;99387.64;84813;1323;22624;-68
2021/12/10 03:23:42;;;;;;;31.50;14.10;;;;;;;-0.59;85.13;99385.23;84808;1328;22729;-69
2021/12/10 03:25:49;;;;;;;27.70;15.20;;;;;;;-0.59;85.05;99390.55;84802;1328;22612;-73
2021/12/10 03:27:59;;;;;;;30.30;15.30;;;;;;;-0.59;84.83;99386.77;84779;1326;22612;-74
2021/12/10 03:30:04;;;;;;;;;;;;;;;-0.56;84.98;99378.02;84810;1326;22836;-74
2021/12/10 03:32:12;;;;;;;24.10;12.30;;;;;;;-0.54;85.13;99374.92;84820;1328;22582;-69
2021/12/10 03:34:23;;;;;;;22.10;12.30;;;;;;;-0.51;85.07;99369.75;84795;1327;22616;-68
2021/12/10 03:36:33;;;;;;;22.20;12.80;;;;;;;-0.49;84.90;99364.95;84756;1330;22648;-74
2021/12/10 03:38:43;;;;;;;26.00;12.70;;;;;;;-0.47;84.95;99362.86;84841;1321;22805;-74
2021/12/10 03:40:51;;;;;;;24.80;13.90;;;;;;;-0.45;84.92;99355.81;84792;1326;24206;-69
2021/12/10 03:42:59;;;;;;;23.00;12.40;;;;;;;-0.43;85.11;99351.69;84783;1327;23950;-68
2021/12/10 03:45:07;;;;;;;22.70;12.80;;;;;;;-0.44;84.76;99352.05;84791;1321;22864;-69
2021/12/10 03:47:14;;;;;;;20.70;11.80;;;;;;;-0.45;85.15;99348.95;84842;1326;25278;-68
2021/12/10 03:49:21;;;;;;;19.70;12.10;;;;;;;-0.44;84.79;99344.84;84783;1325;23966;-69
2021/12/10 03:51:28;;;;;;;22.60;12.50;;;;;;;-0.42;84.99;99345.33;84812;1327;22760;-73
2021/12/10 03:53:36;;;;;;;20.80;12.90;;;;;;;-0.40;85.02;99349.08;84812;1325;25307;-75
2021/12/10 03:55:46;;;;;;;22.60;12.90;;;;;;;-0.40;85.03;99341.54;84790;1329;25942;-75
2021/12/10 03:57:54;;;;;;;23.00;11.50;;;;;;;-0.41;85.08;99340.87;84804;1328;22882;-75
2021/12/10 04:00:01;;;;;;;21.20;12.40;;;;;;;-0.43;85.00;99338.33;84788;1327;25294;-75
2021/12/10 04:02:09;;;;;;;25.50;12.00;;;;;;;-0.41;84.86;99335.04;84817;1323;25652;-75
2021/12/10 04:04:18;;;;;;;22.50;11.60;;;;;;;-0.40;84.86;99332.11;84768;1327;22734;-76
2021/12/10 04:06:25;;;;;;;16.30;10.60;;;;;;;-0.37;85.05;99332.78;84741;1330;22873;-75
2021/12/10 04:08:32;;;;;;;20.80;10.80;;;;;;;-0.35;85.00;99333.60;84785;1329;24261;-75
2021/12/10 04:10:42;;;;;;;22.20;13.80;;;;;;;-0.35;84.86;99332.06;84778;1327;23110;-74
2021/12/10 04:12:50;;;;;;;21.20;11.90;;;;;;;-0.33;85.05;99331.89;84800;1329;22603;-69
2021/12/10 04:15:00;;;;;;;18.50;11.40;;;;;;;-0.35;84.90;99328.48;84835;1325;22597;-68
2021/12/10 04:17:07;;;;;;;22.80;12.70;;;;;;;-0.34;85.10;99326.92;84794;1327;25972;-74
2021/12/10 04:19:17;;;;;;;23.30;13.00;;;;;;;-0.32;85.31;99326.55;84806;1327;24272;-74
2021/12/10 04:21:24;;;;;;;17.90;11.30;;;;;;;-0.31;85.21;99327.73;84820;1327;22612;-74
2021/12/10 04:23:32;;;;;;;19.30;11.10;;;;;;;-0.30;85.38;99326.70;84800;1328;22589;-74
2021/12/10 04:25:40;;;;;;;19.80;10.10;;;;;;;-0.29;85.38;99320.52;84797;1325;22614;-74
2021/12/10 04:27:48;;;;;;;16.90;9.70;;;;;;;-0.29;85.56;99319.16;84814;1322;22718;-74
2021/12/10 04:29:58;;;;;;;21.90;12.40;;;;;;;-0.30;85.32;99312.30;84813;1327;25434;-74
2021/12/10 04:32:09;;;;;;;19.00;10.70;;;;;;;-0.29;85.36;99310.77;84807;1326;22595;-69
2021/12/10 04:34:16;;;;;;;20.70;10.90;;;;;;;-0.28;85.50;99313.66;84836;1327;25482;-69
2021/12/10 04:36:23;;;;;;;16.60;9.10;;;;;;;-0.25;85.29;99311.39;84807;1322;22611;-75
2021/12/10 04:38:32;;;;;;;18.70;9.60;;;;;;;-0.21;85.50;99309.13;84710;1328;22596;-75
2021/12/10 04:40:40;;;;;;;18.00;9.10;;;;;;;-0.19;85.72;99309.28;84823;1327;25465;-74
2021/12/10 04:42:47;;;;;;;18.70;10.70;;;;;;;-0.21;85.47;99311.17;84817;1329;22649;-70
2021/12/10 04:44:56;;;;;;;15.20;9.90;;;;;;;-0.21;85.63;99313.56;84805;1327;22593;-69
2021/12/10 04:47:03;;;;;;;16.30;9.80;;;;;;;-0.18;85.62;99313.91;84855;1326;24231;-75
2021/12/10 04:49:12;;;;;;;17.70;10.40;;;;;;;-0.17;85.70;99310.45;84788;1328;22593;-74
2021/12/10 04:51:21;;;;;;;14.90;8.80;;;;;;;-0.17;85.96;99307.86;84816;1326;23934;-69
2021/12/10 04:53:31;;;;;;;16.40;8.40;;;;;;;-0.15;85.76;99311.11;84806;1325;24245;-70
2021/12/10 04:55:43;;;;;;;17.50;9.90;;;;;;;-0.14;85.62;99308.70;84790;1327;22622;-69
2021/12/10 04:57:50;;;;;;;13.50;8.00;;;;;;;-0.13;85.63;99305.25;84817;1326;24231;-77
2021/12/10 04:59:57;;;;;;;15.90;10.40;;;;;;;-0.08;85.71;99301.44;84799;1327;22795;-74
2021/12/10 05:02:06;;;;;;;17.90;10.20;;;;;;;-0.07;85.81;99297.30;84796;1327;22595;-70
2021/12/10 05:04:17;;;;;;;16.30;9.90;;;;;;;-0.06;86.04;99296.59;84795;1327;23925;-69
2021/12/10 05:06:26;;;;;;;13.80;9.90;;;;;;;-0.04;85.87;99294.88;84796;1328;22590;-70
2021/12/10 05:08:35;;;;;;;12.70;7.80;;;;;;;-0.02;85.64;99292.77;84806;1326;22609;-75
2021/12/10 05:10:46;;;;;;;19.30;9.50;;;;;;;0.02;85.88;99291.55;84814;1327;22615;-74
2021/12/10 05:12:54;;;;;;;15.10;9.40;;;;;;;0.05;85.59;99290.46;84548;1327;281528;-74
2021/12/10 05:15:02;;;;;;;15.80;9.20;;;;;;;0.07;85.71;99293.02;84810;1326;25473;-75
2021/12/10 05:17:10;;;;;;;14.60;8.80;;;;;;;0.08;85.72;99292.48;84092;1325;1003740;-74
2021/12/10 05:19:19;;;;;;;14.50;9.20;;;;;;;0.07;85.85;99296.27;84753;1327;23939;-75
2021/12/10 05:21:26;;;;;;;14.80;8.80;;;;;;;0.08;85.82;99294.02;84802;1326;22862;-70
2021/12/10 05:23:33;;;;;;;11.30;8.00;;;;;;;0.09;85.59;99294.86;84799;1327;22826;-69
2021/12/10 05:25:41;;;;;;;11.00;7.40;;;;;;;0.10;85.69;99294.52;84793;1329;22607;-72
2021/12/10 05:27:48;;;;;;;12.10;7.70;;;;;;;0.12;85.80;99291.23;84830;1329;22645;-76
2021/12/10 05:29:56;;;;;;;14.00;8.60;;;;;;;0.16;85.72;99286.91;84768;1328;25342;-74
2021/12/10 05:32:08;;;;;;;13.60;9.20;;;;;;;0.18;85.98;99281.38;84801;1326;24384;-70
2021/12/10 05:34:15;;;;;;;13.50;8.80;;;;;;;0.18;85.93;99283.08;84803;1328;25511;-69
2021/12/10 05:36:26;;;;;;;15.30;8.80;;;;;;;0.20;85.69;99279.30;84805;1322;22602;-73
2021/12/10 05:38:34;;;;;;;14.00;8.70;;;;;;;0.22;85.86;99276.35;84695;1327;25430;-76
2021/12/10 05:40:41;;;;;;;13.70;8.00;;;;;;;0.24;85.94;99272.54;84797;1322;22809;-75
2021/12/10 05:42:48;;;;;;;12.50;7.90;;;;;;;0.26;85.60;99273.38;84792;1328;22845;-70
2021/12/10 05:44:55;;;;;;;13.60;8.50;;;;;;;0.28;85.68;99270.43;84772;1329;23910;-72
2021/12/10 05:47:02;;;;;;;13.90;8.50;;;;;;;0.30;85.55;99278.30;84834;1327;22616;-74
2021/12/10 05:49:12;;;;;;;11.90;7.80;;;;;;;0.32;85.66;99279.14;84815;1326;22610;-74
2021/12/10 05:51:23;;;;;;;14.00;8.50;;;;;;;0.34;85.57;99285.61;84775;1326;22602;-75
2021/12/10 05:53:30;;;;;;;14.00;8.60;;;;;;;0.36;85.58;99288.34;84817;1329;23907;-75
2021/12/10 05:55:41;;;;;;;14.60;8.90;;;;;;;0.37;85.60;99288.32;84808;1321;24364;-74
2021/12/10 05:57:48;;;;;;;16.70;9.50;;;;;;;0.38;85.60;99285.05;84790;1327;25939;-69
2021/12/10 05:59:59;;;;;;;13.00;8.40;;;;;;;0.37;85.59;99283.86;84716;1329;22668;-69
2021/12/10 06:02:09;;;;;;;12.50;8.00;;;;;;;0.37;85.67;99287.64;84784;1327;22584;-76
2021/12/10 06:04:23;;;;;;;11.80;8.00;;;;;;;0.39;85.27;99290.17;84798;1327;25432;-77
2021/12/10 06:06:33;;;;;;;14.60;8.50;;;;;;;0.41;85.67;99296.85;84795;1327;22611;-70
2021/12/10 06:08:40;;;;;;;12.90;8.50;;;;;;;0.43;85.72;99296.80;84821;1328;24242;-68
2021/12/10 06:10:50;;;;;;;16.10;9.00;;;;;;;0.46;85.54;99293.17;84815;1327;22648;-74
2021/12/10 06:13:00;;;;;;;16.30;9.60;;;;;;;0.46;85.51;99296.77;84711;1329;22605;-77
2021/12/10 06:15:12;;;;;;;14.30;9.30;;;;;;;0.45;85.43;99289.08;84803;1326;22583;-77
2021/12/10 06:17:19;;;;;;;14.70;8.30;;;;;;;0.45;85.52;99291.13;84836;1327;25487;-69
2021/12/10 06:19:26;;;;;;;14.60;7.70;;;;;;;0.45;85.58;99305.55;84788;1326;22616;-68
2021/12/10 06:21:33;;;;;;;11.70;7.50;;;;;;;0.45;85.66;99308.29;84782;1325;22610;-77
2021/12/10 06:23:40;;;;;;;12.10;9.30;;;;;;;0.45;85.53;99303.66;84813;1329;25304;-76
2021/12/10 06:25:47;;;;;;;13.20;8.60;;;;;;;0.46;85.61;99300.54;84822;1328;22687;-76
2021/12/10 06:27:54;;;;;;;13.30;8.30;;;;;;;0.47;85.55;99296.57;84781;1325;22591;-77
2021/12/10 06:30:02;;;;;;;11.70;7.20;;;;;;;0.48;85.41;99297.24;84815;1326;22604;-77
2021/12/10 06:32:13;;;;;;;10.90;7.10;;;;;;;0.47;85.75;99294.70;84783;1322;23295;-70
2021/12/10 06:34:20;;;;;;;10.30;7.20;;;;;;;0.47;85.54;99299.16;84804;1326;22800;-70
2021/12/10 06:36:28;;;;;;;66.60;36.50;;;;;;;0.48;85.60;99300.00;84784;1327;22619;-78
2021/12/10 06:38:36;;;;;;;74.60;42.70;;;;;;;0.52;85.49;99293.77;84826;1323;24349;-75
2021/12/10 06:40:47;;;;;;;16.20;10.30;;;;;;;0.57;85.66;99300.57;84806;1325;23972;-76
2021/12/10 06:42:56;;;;;;;12.20;8.10;;;;;;;0.61;85.71;99305.14;84800;1328;24309;-76
2021/12/10 06:45:09;;;;;;;12.30;7.60;;;;;;;0.63;85.58;99289.66;84764;1325;22837;-75
2021/12/10 06:47:19;;;;;;;15.60;8.50;;;;;;;0.62;85.58;99291.91;84834;1328;22631;-75
2021/12/10 06:49:28;;;;;;;15.50;8.70;;;;;;;0.58;85.32;99301.05;84793;1326;22879;-76
2021/12/10 06:51:35;;;;;;;12.60;7.60;;;;;;;0.56;85.52;99300.76;84812;1326;25499;-70
2021/12/10 06:53:46;;;;;;;10.90;7.90;;;;;;;0.56;85.46;99301.77;84802;1327;24013;-71
2021/12/10 06:55:53;;;;;;;11.10;7.20;;;;;;;0.60;85.51;99303.10;84780;1325;23928;-76
2021/12/10 06:57:59;;;;;;;12.00;7.10;;;;;;;0.61;85.35;99299.64;84817;1324;22628;-76
2021/12/10 07:00:12;;;;;;;13.00;7.70;;;;;;;0.62;85.49;99301.52;84828;1326;22594;-76
2021/12/10 07:02:24;;;;;;;11.40;7.40;;;;;;;0.60;85.51;99294.00;84826;1318;22586;-70
2021/12/10 07:04:34;;;;;;;12.40;8.90;;;;;;;0.60;85.42;99301.38;84836;1328;22628;-71
2021/12/10 07:06:45;;;;;;;12.70;8.00;;;;;;;0.60;85.37;99298.65;84834;1322;22621;-76
2021/12/10 07:08:53;;;;;;;14.70;8.30;;;;;;;0.60;85.36;99295.02;84714;1330;22612;-77
2021/12/10 07:11:04;;;;;;;11.00;7.80;;;;;;;0.60;85.22;99299.16;84818;1327;24264;-75
2021/12/10 07:13:13;;;;;;;;;;;;;;;0.62;85.26;99297.90;84818;1327;25628;-76
2021/12/10 07:15:20;;;;;;;11.30;8.10;;;;;;;0.62;85.64;99296.89;84799;1322;22586;-76
2021/12/10 07:17:27;;;;;;;13.50;8.60;;;;;;;0.66;85.73;99289.27;84803;1322;22869;-70
2021/12/10 07:19:36;;;;;;;11.40;7.40;;;;;;;0.70;85.82;99287.50;84815;1327;22690;-70
2021/12/10 07:21:47;;;;;;;12.80;8.30;;;;;;;0.68;85.42;99283.73;84825;1325;24184;-76
2021/12/10 07:23:56;;;;;;;14.30;9.30;;;;;;;0.66;85.46;99299.22;84799;1320;23982;-76
2021/12/10 07:26:06;;;;;;;13.20;8.80;;;;;;;0.66;85.46;99301.80;84820;1326;22590;-72
2021/12/10 07:28:17;;;;;;;13.80;9.00;;;;;;;0.65;85.26;99305.77;84770;1318;24279;-70
2021/12/10 07:30:25;;;;;;;12.60;9.10;;;;;;;0.64;85.34;99301.14;84811;1324;22724;-70
2021/12/10 07:32:36;;;;;;;12.40;9.40;;;;;;;0.68;85.43;99292.84;84827;1326;22601;-76
2021/12/10 07:34:43;;;;;;;13.80;9.40;;;;;;;0.73;85.77;99295.34;84809;1327;24357;-75
2021/12/10 07:36:50;;;;;;;15.90;10.60;;;;;;;0.73;85.50;99294.30;84769;1328;22902;-75
2021/12/10 07:39:00;;;;;;;19.10;11.70;;;;;;;0.73;85.55;99298.09;84808;1325;22834;-76
2021/12/10 07:41:08;;;;;;;24.60;16.20;;;;;;;0.73;85.45;99298.25;84785;1322;22583;-76
2021/12/10 07:43:17;;;;;;;16.90;10.30;;;;;;;0.73;85.44;99296.02;84800;1322;22603;-76
2021/12/10 07:45:24;;;;;;;16.60;10.00;;;;;;;0.73;85.31;99300.65;84824;1326;22601;-77
2021/12/10 07:47:35;;;;;;;16.00;11.80;;;;;;;0.76;85.32;99302.50;84781;1328;22616;-76
2021/12/10 07:49:42;;;;;;;13.80;9.20;;;;;;;0.78;85.46;99302.81;84796;1327;22827;-76
2021/12/10 07:51:50;;;;;;;14.80;10.20;;;;;;;0.76;85.17;99305.24;84775;1328;22889;-77
2021/12/10 07:53:59;;;;;;;14.80;11.30;;;;;;;0.77;85.53;99309.02;84795;1329;25328;-77
2021/12/10 07:56:10;;;;;;;16.10;11.20;;;;;;;0.79;85.50;99307.77;84806;1325;22601;-69
2021/12/10 07:58:17;;;;;;;15.80;11.10;;;;;;;0.79;85.28;99312.42;84807;1327;23931;-70
2021/12/10 08:00:25;;;;;;;14.50;9.80;;;;;;;0.80;85.54;99311.55;84822;1327;23010;-75
2021/12/10 08:02:35;;;;;;;15.80;10.80;;;;;;;0.81;85.37;99308.09;84764;1326;22579;-76
2021/12/10 08:04:42;;;;;;;17.60;11.10;;;;;;;0.84;85.40;99307.70;84797;1318;22666;-75
2021/12/10 08:06:50;;;;;;;18.80;10.70;;;;;;;0.89;85.41;99304.37;84815;1322;22750;-71
2021/12/10 08:08:58;;;;;;;14.60;10.00;;;;;;;0.93;85.32;99304.98;84803;1326;25444;-70
2021/12/10 08:11:05;;;;;;;17.70;12.10;;;;;;;0.94;85.49;99302.91;84817;1326;23975;-78
2021/12/10 08:13:16;;;;;;;16.20;11.70;;;;;;;0.98;85.48;99309.70;84693;1330;22801;-77
2021/12/10 08:15:23;;;;;;;18.20;13.30;;;;;;;0.99;85.39;99304.90;84800;1327;23066;-77
2021/12/10 08:17:30;;;;;;;23.10;12.70;;;;;;;1.00;85.35;99303.16;84699;1327;23908;-76
2021/12/10 08:19:37;;;;;;;21.40;14.20;;;;;;;1.03;85.30;99303.62;84803;1322;22725;-76
2021/12/10 08:21:45;;;;;;;19.70;13.70;;;;;;;1.04;85.16;99299.48;84801;1322;22609;-70
2021/12/10 08:23:55;;;;;;;18.30;12.20;;;;;;;1.03;85.20;99297.95;84819;1327;23978;-70
2021/12/10 08:26:09;;;;;;;18.80;13.00;;;;;;;1.03;85.24;99301.55;84816;1325;22600;-78
2021/12/10 08:28:18;;;;;;;22.20;14.00;;;;;;;1.01;85.15;99294.39;84818;1329;22591;-70
2021/12/10 08:30:26;;;;;;;21.30;14.60;;;;;;;1.00;85.29;99296.27;84724;1325;22845;-76
2021/12/10 08:32:35;;;;;;;27.00;17.00;;;;;;;1.02;85.43;99299.16;84806;1325;22607;-77
2021/12/10 08:34:45;;;;;;;25.30;16.40;;;;;;;1.01;85.38;99303.98;84811;1327;25313;-78
2021/12/10 08:36:56;;;;;;;28.30;18.40;;;;;;;1.03;85.33;99297.25;84793;1321;22743;-69
2021/12/10 08:39:11;;;;;;;27.30;17.20;;;;;;;1.07;85.25;99299.10;84807;1327;23983;-77
2021/12/10 08:41:20;;;;;;;28.30;17.10;;;;;;;1.11;85.32;99304.87;84826;1326;22653;-75
2021/12/10 08:43:29;;;;;;;31.50;19.70;;;;;;;1.16;85.45;99306.33;84808;1326;23721;-69
2021/12/10 08:45:36;;;;;;;35.20;19.90;;;;;;;1.18;85.35;99300.80;84811;1326;25530;-69
2021/12/10 08:47:47;;;;;;;33.60;20.80;;;;;;;1.17;85.10;99305.10;84777;1328;22680;-69
2021/12/10 08:49:58;;;;;;;36.20;21.00;;;;;;;1.14;85.11;99309.27;84833;1327;22724;-76
2021/12/10 08:52:16;;;;;;;36.60;19.40;;;;;;;1.11;84.98;99310.70;84813;1323;22584;-75
2021/12/10 08:54:36;;;;;;;36.20;23.20;;;;;;;1.07;85.23;99313.67;84814;1328;23932;-76
2021/12/10 08:56:48;;;;;;;33.30;19.20;;;;;;;1.08;85.12;99314.70;84719;1327;22673;-70
2021/12/10 08:59:02;;;;;;;33.00;21.40;;;;;;;1.11;85.13;99317.92;84666;1326;22703;-76
2021/12/10 09:01:13;;;;;;;34.10;19.80;;;;;;;1.15;85.15;99313.73;84650;1330;23937;-77
2021/12/10 09:03:23;;;;;;;37.90;22.40;;;;;;;1.16;85.27;99307.52;84671;1330;24369;-77
2021/12/10 09:05:31;;;;;;;43.90;23.10;;;;;;;1.18;85.38;99301.48;84726;1330;22619;-77
2021/12/10 09:07:44;;;;;;;40.00;23.10;;;;;;;1.21;85.22;99305.20;84726;1329;22592;-70
2021/12/10 09:09:51;;;;;;;45.60;26.40;;;;;;;1.20;85.12;99311.06;84713;1328;22587;-69
2021/12/10 09:12:01;;;;;;;44.10;24.70;;;;;;;1.23;85.17;99312.21;84708;1327;22615;-78
2021/12/10 09:14:08;;;;;;;43.60;24.20;;;;;;;1.24;85.14;99315.11;84712;1325;22758;-78
2021/12/10 09:16:22;;;;;;;42.60;23.30;;;;;;;1.23;84.99;99315.99;84715;1327;22805;-70
2021/12/10 09:18:29;;;;;;;41.90;25.30;;;;;;;1.23;85.08;99319.95;84732;1327;24231;-71
2021/12/10 09:20:39;;;;;;;46.60;27.00;;;;;;;1.23;85.15;99319.95;84714;1327;22592;-70
2021/12/10 09:22:48;;;;;;;46.20;27.70;;;;;;;1.20;85.08;99317.41;84699;1328;22589;-71
2021/12/10 09:24:55;;;;;;;46.70;27.10;;;;;;;1.17;85.16;99314.72;84696;1327;25269;-69
2021/12/10 09:27:03;;;;;;;48.50;27.10;;;;;;;1.17;85.24;99319.36;84716;1327;26074;-78
2021/12/10 09:29:14;;;;;;;48.00;29.00;;;;;;;1.20;85.34;99311.41;84703;1327;24266;-79
2021/12/10 09:31:24;;;;;;;50.90;27.10;;;;;;;1.23;85.31;99317.70;84704;1330;22606;-78
2021/12/10 09:33:36;;;;;;;47.70;26.70;;;;;;;1.24;85.11;99311.68;84754;1327;25382;-78
2021/12/10 09:35:46;;;;;;;45.80;28.00;;;;;;;1.26;85.14;99302.54;84717;1327;22741;-78
2021/12/10 09:37:51;;;;;;;;;;;;;;;1.26;85.21;99296.87;84707;1330;24297;-78
2021/12/10 09:39:59;;;;;;;50.60;27.30;;;;;;;1.26;85.19;99297.73;84731;1327;22871;-79
2021/12/10 09:42:09;;;;;;;58.30;29.60;;;;;;;1.26;85.33;99299.77;84749;1327;22662;-71
2021/12/10 09:44:17;;;;;;;56.00;27.80;;;;;;;1.24;85.21;99304.63;84710;1327;22582;-69
2021/12/10 09:46:24;;;;;;;52.20;27.60;;;;;;;1.23;85.14;99312.04;84732;1327;23789;-70
2021/12/10 09:48:32;;;;;;;47.70;25.10;;;;;;;1.25;85.23;99318.36;84005;1324;1003636;-70
2021/12/10 09:50:41;;;;;;;43.80;26.50;;;;;;;1.28;85.09;99321.91;84729;1327;22643;-70
2021/12/10 09:52:54;;;;;;;44.80;26.50;;;;;;;1.30;85.39;99323.77;84738;1322;22662;-69
2021/12/10 09:55:02;;;;;;;43.20;26.70;;;;;;;1.32;85.27;99327.01;84724;1332;22637;-70
2021/12/10 09:57:15;;;;;;;49.90;26.90;;;;;;;1.34;85.28;99319.94;84683;1323;22601;-80
2021/12/10 09:59:22;;;;;;;49.40;27.80;;;;;;;1.35;85.38;99317.16;84819;1326;22621;-79
2021/12/10 10:01:31;;;;;;;54.40;28.80;;;;;;;1.36;85.10;99317.48;84826;1322;22700;-78
2021/12/10 10:03:41;;;;;;;54.50;29.00;;;;;;;1.37;85.28;99310.25;84773;1326;22658;-80
2021/12/10 10:05:48;;;;;;;52.00;29.40;;;;;;;1.37;85.06;99316.59;84819;1324;22717;-71
2021/12/10 10:07:55;;;;;;;46.00;24.80;;;;;;;1.37;85.16;99316.26;84807;1325;23985;-69